Terminal Aerodrome Forecast
Issued by NWS

Home | Current Version | Previous Version | Text Only | Print | Product List | Glossary On
Versions: 1 2 3 4 5 6 7 8 9 10 11 12 13 14 15 16 17 18 19 20 21 22 23 24 25 26 27 28 29
000
FTUS42 KFFC 212032 AAA
TAFFTY
TAF AMD
KFTY 212032Z 2121/2218 08005KT P6SM OVC014
     FM220500 09005KT 5SM -DZ BR OVC007
     FM220900 09005KT 2SM -DZ BR OVC004
     FM221600 09005KT 5SM -DZ BR OVC007=

USA.gov is the U.S. government's official web portal to all federal, state and local government web resources and services.